Time;durP1;ratioP1;P1;durP2;ratioP2;P2;SDS_P1;SDS_P2;PMS_P1;PMS_P2;Temp;Humidity;BMP_temperature;BMP_pressure;BME280_temperature;BME280_humidity;BME280_pressure;Samples;Min_cycle;Max_cycle;Signal;HPM_P1;HPM_P2
2021/08/11 00:01:39;;;;;;;7.43;4.35;;;27.50;96.70;;;;;;4973055;28;20038;-75
2021/08/11 00:04:07;;;;;;;8.82;4.13;;;27.50;96.70;;;;;;4980647;28;20050;-76
2021/08/11 00:06:54;;;;;;;8.60;4.30;;;27.50;96.70;;;;;;4966676;28;20555;-76
2021/08/11 00:09:22;;;;;;;9.25;4.57;;;27.30;96.70;;;;;;4966357;28;20256;-76
2021/08/11 00:12:12;;;;;;;6.40;4.13;;;27.30;96.70;;;;;;4953771;28;20048;-75
2021/08/11 00:14:40;;;;;;;7.72;4.93;;;27.30;96.70;;;;;;4970652;28;20046;-75
2021/08/11 00:17:28;;;;;;;7.20;3.83;;;27.30;96.70;;;;;;4973202;28;20094;-76
2021/08/11 00:19:57;;;;;;;6.05;4.18;;;27.10;96.70;;;;;;4974041;28;20500;-75
2021/08/11 00:22:25;;;;;;;7.13;4.38;;;27.10;96.70;;;;;;4981426;28;20046;-76
2021/08/11 00:24:54;;;;;;;9.70;4.10;;;27.10;96.70;;;;;;4979258;28;20073;-76
2021/08/11 00:27:22;;;;;;;7.30;4.07;;;27.10;96.70;;;;;;4961493;28;20073;-77
2021/08/11 00:29:50;;;;;;;8.45;3.95;;;27.20;96.70;;;;;;4974576;28;20050;-76
2021/08/11 00:33:08;;;;;;;7.18;4.20;;;27.30;96.70;;;;;;4973070;28;20121;-76
2021/08/11 00:35:37;;;;;;;7.27;4.13;;;27.30;96.70;;;;;;4994551;28;20149;-76
2021/08/11 00:38:22;;;;;;;8.30;4.30;;;27.20;96.70;;;;;;4978852;28;20297;-76
2021/08/11 00:40:56;;;;;;;10.32;4.90;;;27.20;96.70;;;;;;4978022;28;20062;-76
2021/08/11 00:43:25;;;;;;;6.65;4.13;;;27.10;96.70;;;;;;4974687;28;20399;-76
2021/08/11 00:45:54;;;;;;;6.65;4.18;;;27.10;96.70;;;;;;4981119;28;20047;-76
2021/08/11 00:48:25;;;;;;;14.55;5.13;;;27.20;96.70;;;;;;4979074;28;20575;-76
2021/08/11 00:50:57;;;;;;;7.35;3.83;;;27.10;96.70;;;;;;4990290;28;20081;-76
2021/08/11 00:53:28;;;;;;;8.82;4.75;;;27.10;96.70;;;;;;4975916;28;20046;-76
2021/08/11 00:55:59;;;;;;;8.52;4.43;;;27.00;96.70;;;;;;4974988;28;20035;-76
2021/08/11 00:58:29;;;;;;;7.50;4.50;;;27.00;96.70;;;;;;4984789;28;20061;-76
2021/08/11 01:00:59;;;;;;;8.82;4.72;;;26.90;96.70;;;;;;4977269;28;20061;-76
2021/08/11 01:03:29;;;;;;;6.68;4.72;;;26.90;96.70;;;;;;4981312;28;20153;-76
2021/08/11 01:06:02;;;;;;;6.85;4.28;;;26.80;96.70;;;;;;4963492;28;20055;-76
2021/08/11 01:08:32;;;;;;;8.93;4.60;;;26.80;96.70;;;;;;4982026;28;20069;-76
2021/08/11 01:11:01;;;;;;;7.97;4.35;;;26.80;96.70;;;;;;4978839;28;20497;-76
2021/08/11 01:13:30;;;;;;;11.55;4.53;;;26.90;96.70;;;;;;4984024;28;20065;-76
2021/08/11 01:15:59;;;;;;;7.38;4.13;;;26.90;96.70;;;;;;4975511;28;20052;-76
2021/08/11 01:18:30;;;;;;;7.28;3.95;;;26.80;96.70;;;;;;4983385;28;20054;-76
2021/08/11 01:21:06;;;;;;;9.15;4.88;;;26.90;96.70;;;;;;4974175;28;20042;-76
2021/08/11 01:23:42;;;;;;;7.38;4.40;;;26.80;96.70;;;;;;4990788;28;20080;-76
2021/08/11 01:26:19;;;;;;;6.30;4.43;;;26.80;96.70;;;;;;4974926;28;20054;-76
2021/08/11 01:29:09;;;;;;;8.77;4.80;;;26.80;96.70;;;;;;4983466;28;20050;-76
2021/08/11 01:31:47;;;;;;;7.45;4.65;;;26.80;96.70;;;;;;4972245;28;20062;-76
2021/08/11 01:34:23;;;;;;;8.52;4.55;;;26.80;96.70;;;;;;4980871;28;20243;-76
2021/08/11 01:36:52;;;;;;;8.77;4.50;;;26.80;96.70;;;;;;4983651;28;20050;-76
2021/08/11 01:39:33;;;;;;;7.10;4.30;;;26.70;96.70;;;;;;4975377;28;20527;-76
2021/08/11 01:42:06;;;;;;;7.15;4.43;;;26.70;96.70;;;;;;4981897;28;20521;-76
2021/08/11 01:44:40;;;;;;;7.13;4.50;;;26.80;96.70;;;;;;4974705;28;20055;-76
2021/08/11 01:47:13;;;;;;;8.05;4.20;;;26.70;96.70;;;;;;4979377;28;20518;-76
2021/08/11 01:49:47;;;;;;;10.55;4.15;;;26.70;96.70;;;;;;4973635;28;20062;-76
2021/08/11 01:52:18;;;;;;;5.85;4.22;;;26.60;96.70;;;;;;4985022;28;20042;-76
2021/08/11 01:54:49;;;;;;;8.18;4.90;;;26.60;96.70;;;;;;4981372;28;20038;-76
2021/08/11 01:57:19;;;;;;;9.15;4.70;;;26.60;96.70;;;;;;4975472;28;20412;-76
2021/08/11 01:59:49;;;;;;;7.93;4.10;;;26.50;96.70;;;;;;4975259;28;20452;-76
2021/08/11 02:02:18;;;;;;;6.03;4.25;;;26.50;96.70;;;;;;4980648;28;20176;-75
2021/08/11 02:04:48;;;;;;;9.82;5.15;;;26.50;96.70;;;;;;4958762;28;20053;-75
2021/08/11 02:07:17;;;;;;;7.47;4.65;;;26.40;96.70;;;;;;4975792;28;20135;-75
2021/08/11 02:09:52;;;;;;;8.98;4.03;;;26.30;96.70;;;;;;4980740;28;20049;-75
2021/08/11 02:12:20;;;;;;;8.15;4.90;;;26.30;96.70;;;;;;4980162;28;20057;-75
2021/08/11 02:14:49;;;;;;;7.88;4.57;;;26.30;96.70;;;;;;4958688;28;20050;-75
2021/08/11 02:17:19;;;;;;;6.60;4.45;;;26.30;96.70;;;;;;4970390;28;20510;-75
2021/08/11 02:19:51;;;;;;;6.20;4.43;;;26.30;96.70;;;;;;4979742;28;20054;-75
2021/08/11 02:22:21;;;;;;;8.10;4.25;;;26.20;96.70;;;;;;4958781;28;20081;-75
2021/08/11 02:24:52;;;;;;;7.05;4.40;;;26.20;96.70;;;;;;4980790;28;20054;-75
2021/08/11 02:27:25;;;;;;;7.10;4.32;;;26.20;96.70;;;;;;4974370;28;20579;-75
2021/08/11 02:30:00;;;;;;;7.35;4.68;;;26.20;96.70;;;;;;4976453;28;20465;-75
2021/08/11 02:32:37;;;;;;;8.18;4.25;;;26.20;96.70;;;;;;4974739;28;20051;-75
2021/08/11 02:35:16;;;;;;;8.10;4.72;;;26.20;96.70;;;;;;4980832;28;20054;-75
2021/08/11 02:37:54;;;;;;;6.03;4.28;;;26.20;96.70;;;;;;4976338;28;20066;-76
2021/08/11 02:40:30;;;;;;;7.72;4.65;;;26.20;96.70;;;;;;4979009;28;20054;-75
2021/08/11 02:43:05;;;;;;;10.88;5.10;;;26.20;96.70;;;;;;4974571;28;20045;-75
2021/08/11 02:45:39;;;;;;;8.35;4.97;;;26.10;96.70;;;;;;4962018;28;20042;-76
2021/08/11 02:48:10;;;;;;;9.55;5.30;;;26.20;96.70;;;;;;4973110;28;20054;-76
2021/08/11 02:50:43;;;;;;;9.48;5.13;;;26.10;96.70;;;;;;4955346;28;20082;-75
2021/08/11 02:53:15;;;;;;;11.25;6.43;;;25.90;96.70;;;;;;4982155;28;20096;-76
2021/08/11 02:55:44;;;;;;;10.27;7.03;;;25.70;96.70;;;;;;4981498;28;20054;-75
2021/08/11 02:58:15;;;;;;;13.85;6.90;;;25.70;96.70;;;;;;4958469;28;20038;-76
2021/08/11 03:00:44;;;;;;;11.15;6.75;;;25.70;96.70;;;;;;4981241;28;20046;-76
2021/08/11 03:03:13;;;;;;;7.82;6.00;;;25.60;96.70;;;;;;4977594;28;20481;-76
2021/08/11 03:05:45;;;;;;;8.23;5.85;;;25.60;96.70;;;;;;4972198;28;20046;-76
2021/08/11 03:08:14;;;;;;;11.15;5.78;;;25.80;96.70;;;;;;4978723;28;20048;-75
2021/08/11 03:10:43;;;;;;;9.98;5.55;;;25.80;96.70;;;;;;4997709;28;20436;-76
2021/08/11 03:13:14;;;;;;;8.73;5.28;;;25.80;96.70;;;;;;4981739;28;20044;-76
2021/08/11 03:15:44;;;;;;;7.93;4.95;;;25.60;96.70;;;;;;4972410;28;20050;-76
2021/08/11 03:18:19;;;;;;;9.02;5.05;;;25.50;96.70;;;;;;4979818;28;20084;-76
2021/08/11 03:20:51;;;;;;;9.95;5.10;;;25.50;96.70;;;;;;4975085;28;20683;-76
2021/08/11 03:23:19;;;;;;;7.75;5.13;;;25.50;96.70;;;;;;4979561;28;20096;-76
2021/08/11 03:25:48;;;;;;;10.50;4.88;;;25.60;96.70;;;;;;4970855;28;20391;-76
2021/08/11 03:28:17;;;;;;;9.20;5.10;;;25.60;96.70;;;;;;4979288;28;20400;-75
2021/08/11 03:30:46;;;;;;;11.73;5.47;;;25.70;96.70;;;;;;4958217;28;20038;-76
2021/08/11 03:33:15;;;;;;;6.57;4.50;;;25.60;96.70;;;;;;4981238;28;20120;-76
2021/08/11 03:35:46;;;;;;;7.78;5.03;;;25.60;96.70;;;;;;4964676;28;20042;-76
2021/08/11 03:38:18;;;;;;;8.45;4.97;;;25.70;96.70;;;;;;4972924;28;20524;-76
2021/08/11 03:40:48;;;;;;;9.13;4.97;;;25.70;96.70;;;;;;4951992;28;20132;-75
2021/08/11 03:43:17;;;;;;;8.73;4.82;;;25.70;96.70;;;;;;4966573;28;20469;-76
2021/08/11 03:45:46;;;;;;;9.32;5.43;;;25.70;96.70;;;;;;4995005;28;20055;-76
2021/08/11 03:48:14;;;;;;;7.57;5.15;;;25.70;96.70;;;;;;4976136;28;20048;-76
2021/08/11 03:50:44;;;;;;;7.75;4.50;;;25.70;96.70;;;;;;4972304;28;20521;-76
2021/08/11 03:53:13;;;;;;;7.32;4.57;;;25.80;96.70;;;;;;4975529;28;20047;-75
2021/08/11 03:55:43;;;;;;;6.40;4.28;;;25.80;96.70;;;;;;4973444;28;20054;-76
2021/08/11 03:58:11;;;;;;;7.95;4.35;;;25.80;96.70;;;;;;4975659;28;20050;-76
2021/08/11 04:00:41;;;;;;;7.93;4.65;;;25.70;96.70;;;;;;4965770;28;20467;-76
2021/08/11 04:03:10;;;;;;;7.43;4.75;;;25.70;96.70;;;;;;4977853;28;20504;-76
2021/08/11 04:05:39;;;;;;;8.00;4.22;;;25.60;96.70;;;;;;4975124;28;20118;-76
2021/08/11 04:08:07;;;;;;;7.35;4.78;;;25.60;96.70;;;;;;4984377;28;20619;-76
2021/08/11 04:10:35;;;;;;;9.93;4.70;;;25.70;96.70;;;;;;4984645;28;20133;-76
2021/08/11 04:13:05;;;;;;;6.65;4.47;;;25.70;96.70;;;;;;4974402;28;20051;-76
2021/08/11 04:15:33;;;;;;;6.05;4.38;;;25.70;96.70;;;;;;4983732;28;20072;-76
2021/08/11 04:18:01;;;;;;;6.72;4.45;;;25.60;96.70;;;;;;4977659;28;20623;-76
2021/08/11 04:20:30;;;;;;;7.95;4.68;;;25.70;96.70;;;;;;4979179;28;20055;-76
2021/08/11 04:22:58;;;;;;;7.40;4.75;;;25.70;96.70;;;;;;4977477;28;20712;-76
2021/08/11 04:25:27;;;;;;;8.35;4.32;;;25.60;96.70;;;;;;4978718;28;21367;-76
2021/08/11 04:27:55;;;;;;;13.07;5.13;;;25.60;96.70;;;;;;4977281;28;20059;-76
2021/08/11 04:30:24;;;;;;;5.95;4.40;;;25.60;96.70;;;;;;4982147;28;20053;-76
2021/08/11 04:32:52;;;;;;;8.00;4.75;;;25.50;96.70;;;;;;4974469;28;20047;-76
2021/08/11 04:35:21;;;;;;;8.18;4.32;;;25.50;96.70;;;;;;4984932;28;20650;-75
2021/08/11 04:37:49;;;;;;;9.57;4.70;;;25.50;96.70;;;;;;4976135;28;20535;-75
2021/08/11 04:40:17;;;;;;;8.07;4.63;;;25.60;96.70;;;;;;4980623;28;20073;-76
2021/08/11 04:42:46;;;;;;;8.27;5.22;;;25.60;96.70;;;;;;4975588;28;20081;-75
2021/08/11 04:45:15;;;;;;;7.88;4.80;;;25.70;96.70;;;;;;4979155;28;20042;-77
2021/08/11 04:47:46;;;;;;;6.93;4.72;;;25.70;96.70;;;;;;4986501;28;20237;-76
2021/08/11 04:50:14;;;;;;;11.10;5.05;;;25.60;96.70;;;;;;4983069;28;20512;-76
2021/08/11 04:52:42;;;;;;;9.00;4.97;;;25.60;96.70;;;;;;4986471;28;20141;-76
2021/08/11 04:55:12;;;;;;;8.98;4.93;;;25.50;96.70;;;;;;4974176;28;20051;-76
2021/08/11 04:57:41;;;;;;;7.97;5.30;;;25.50;96.70;;;;;;4977203;28;20050;-76
2021/08/11 05:00:10;;;;;;;8.10;5.25;;;25.50;96.70;;;;;;4981160;28;20167;-76
2021/08/11 05:02:38;;;;;;;9.85;5.40;;;25.60;96.70;;;;;;4975747;28;20540;-76
2021/08/11 05:05:09;;;;;;;7.40;4.75;;;25.50;96.70;;;;;;4984969;28;20053;-76
2021/08/11 05:07:38;;;;;;;9.18;5.00;;;25.60;96.70;;;;;;4976205;28;20125;-76
2021/08/11 05:10:07;;;;;;;10.38;5.13;;;25.60;96.70;;;;;;4980196;28;20046;-76
2021/08/11 05:12:35;;;;;;;6.65;5.45;;;25.70;96.70;;;;;;4974221;28;20050;-76
2021/08/11 05:15:05;;;;;;;6.95;5.70;;;25.70;96.70;;;;;;4984559;28;20042;-76
2021/08/11 05:17:33;;;;;;;8.48;5.53;;;25.80;96.70;;;;;;4977674;28;20454;-77
2021/08/11 05:20:03;;;;;;;6.85;5.15;;;25.70;96.70;;;;;;4972962;28;20050;-76
2021/08/11 05:22:33;;;;;;;8.00;5.25;;;25.70;96.70;;;;;;4983252;28;20094;-76
2021/08/11 05:25:01;;;;;;;10.55;5.63;;;25.80;96.70;;;;;;4976858;28;20106;-76
2021/08/11 05:27:29;;;;;;;7.15;5.60;;;25.80;96.70;;;;;;4980992;28;20046;-75
2021/08/11 05:29:57;;;;;;;8.27;5.85;;;25.80;96.70;;;;;;4984325;28;20047;-76
2021/08/11 05:32:25;;;;;;;9.38;5.93;;;25.80;96.70;;;;;;4984798;28;20455;-76
2021/08/11 05:34:54;;;;;;;9.88;5.78;;;25.80;96.70;;;;;;4978937;28;20078;-75
2021/08/11 05:37:22;;;;;;;7.20;5.28;;;25.80;96.70;;;;;;4973621;28;20042;-76
2021/08/11 05:39:52;;;;;;;8.05;5.43;;;25.90;96.70;;;;;;4975239;28;20420;-76
2021/08/11 05:42:20;;;;;;;9.18;5.35;;;25.90;96.70;;;;;;4981617;28;20049;-76
2021/08/11 05:44:50;;;;;;;7.00;5.63;;;26.00;96.70;;;;;;4972322;28;20148;-76
2021/08/11 05:47:18;;;;;;;9.35;6.15;;;26.00;96.70;;;;;;4982204;28;20046;-76
2021/08/11 05:49:46;;;;;;;7.28;5.40;;;26.00;96.70;;;;;;4976533;28;20053;-76
2021/08/11 05:52:15;;;;;;;7.25;5.53;;;26.00;96.70;;;;;;4974899;28;20452;-76
2021/08/11 05:54:43;;;;;;;8.27;5.03;;;26.00;96.70;;;;;;4975025;28;20046;-76
2021/08/11 05:57:13;;;;;;;11.65;6.47;;;26.00;96.70;;;;;;4984913;28;20125;-76
2021/08/11 05:59:41;;;;;;;7.80;5.22;;;26.00;96.70;;;;;;4978295;28;20492;-76
2021/08/11 06:02:09;;;;;;;11.18;5.80;;;26.00;96.70;;;;;;4975282;28;20047;-76
2021/08/11 06:04:45;;;;;;;9.25;5.85;;;26.10;96.70;;;;;;4964076;28;20505;-76
2021/08/11 06:07:14;;;;;;;8.77;5.35;;;26.00;96.70;;;;;;4978397;28;20737;-76
2021/08/11 06:09:42;;;;;;;7.18;5.60;;;25.80;96.70;;;;;;4976216;28;20047;-76
2021/08/11 06:12:12;;;;;;;9.10;5.35;;;25.90;96.70;;;;;;4978752;28;20046;-76
2021/08/11 06:14:40;;;;;;;6.57;5.35;;;26.00;96.70;;;;;;4971453;28;20046;-76
2021/08/11 06:17:09;;;;;;;10.27;5.20;;;26.20;96.70;;;;;;4983704;28;20138;-76
2021/08/11 06:19:37;;;;;;;11.75;5.70;;;26.30;96.70;;;;;;4974190;28;20057;-76
2021/08/11 06:22:06;;;;;;;11.23;5.63;;;26.40;96.70;;;;;;4985188;28;20046;-76
2021/08/11 06:24:39;;;;;;;9.02;6.22;;;26.40;96.70;;;;;;4981084;28;20965;-76
2021/08/11 06:27:08;;;;;;;9.45;5.60;;;26.40;96.70;;;;;;4972687;28;20054;-77
2021/08/11 06:29:38;;;;;;;11.10;6.22;;;26.40;96.70;;;;;;4978961;28;20050;-76
2021/08/11 06:32:06;;;;;;;10.55;6.13;;;26.40;96.70;;;;;;4975972;28;20544;-77
2021/08/11 06:34:35;;;;;;;7.40;5.47;;;26.30;96.70;;;;;;4977087;28;20050;-76
2021/08/11 06:37:03;;;;;;;12.70;6.32;;;26.30;96.70;;;;;;4978061;28;20042;-76
2021/08/11 06:39:32;;;;;;;9.05;5.05;;;26.30;96.70;;;;;;4977231;28;20512;-76
2021/08/11 06:42:00;;;;;;;9.82;5.97;;;26.40;96.70;;;;;;4977729;28;20078;-76
2021/08/11 06:44:43;;;;;;;10.50;6.65;;;26.50;96.70;;;;;;4978155;28;20409;-76
2021/08/11 06:47:12;;;;;;;8.85;6.28;;;26.50;96.70;;;;;;4973144;28;20124;-76
2021/08/11 06:49:40;;;;;;;12.70;6.72;;;26.50;96.70;;;;;;4962794;28;20385;-76
2021/08/11 06:52:08;;;;;;;11.85;6.47;;;26.50;96.70;;;;;;4971453;28;20038;-76
2021/08/11 06:54:37;;;;;;;11.65;6.20;;;26.60;96.70;;;;;;4965557;28;20042;-77
2021/08/11 06:57:05;;;;;;;8.95;5.70;;;26.60;96.70;;;;;;4971358;28;20050;-76
2021/08/11 06:59:33;;;;;;;9.48;5.60;;;26.80;96.70;;;;;;4975603;28;20050;-76
2021/08/11 07:02:03;;;;;;;10.45;6.32;;;26.80;96.70;;;;;;4970327;28;20394;-77
2021/08/11 07:04:32;;;;;;;13.38;6.25;;;26.90;96.70;;;;;;4977167;28;20045;-76
2021/08/11 07:07:00;;;;;;;7.95;5.35;;;26.90;96.70;;;;;;4978575;28;20469;-76
2021/08/11 07:09:28;;;;;;;10.55;6.32;;;27.10;96.70;;;;;;4978655;28;20046;-76
2021/08/11 07:11:56;;;;;;;7.78;5.40;;;27.20;96.70;;;;;;4972950;28;20163;-76
2021/08/11 07:14:25;;;;;;;8.40;5.43;;;27.20;96.70;;;;;;4980608;28;20042;-76
2021/08/11 07:16:53;;;;;;;8.50;5.20;;;27.20;96.70;;;;;;4970983;28;20038;-76
2021/08/11 07:19:23;;;;;;;11.10;5.90;;;27.20;96.70;;;;;;4970934;28;20074;-76
2021/08/11 07:21:52;;;;;;;10.38;5.18;;;27.30;96.70;;;;;;4976489;28;20054;-76
2021/08/11 07:24:20;;;;;;;8.73;5.88;;;27.30;96.70;;;;;;4976561;28;20485;-76
2021/08/11 07:26:49;;;;;;;10.32;6.10;;;27.40;96.70;;;;;;4975146;28;20141;-76
2021/08/11 07:29:22;;;;;;;10.82;6.32;;;27.50;96.70;;;;;;4980426;28;20046;-76
2021/08/11 07:31:51;;;;;;;12.32;6.50;;;27.50;96.70;;;;;;4975005;28;20050;-76
2021/08/11 07:34:20;;;;;;;8.88;5.95;;;27.60;96.70;;;;;;4972486;28;20069;-76
2021/08/11 07:36:49;;;;;;;7.63;5.35;;;27.60;96.70;;;;;;4975774;28;20047;-76
2021/08/11 07:39:18;;;;;;;10.43;6.25;;;27.60;96.70;;;;;;4976523;28;20050;-76
2021/08/11 07:41:46;;;;;;;7.25;5.30;;;27.60;96.70;;;;;;4957471;28;20054;-76
2021/08/11 07:44:15;;;;;;;12.90;5.72;;;27.70;96.70;;;;;;4976728;28;20090;-76
2021/08/11 07:46:43;;;;;;;9.80;6.15;;;27.80;96.70;;;;;;4978363;28;20541;-76
2021/08/11 07:49:11;;;;;;;9.65;5.80;;;27.80;96.70;;;;;;4980911;28;20408;-77
2021/08/11 07:51:39;;;;;;;8.35;5.38;;;27.90;96.70;;;;;;4963106;28;20042;-77
2021/08/11 07:54:09;;;;;;;8.70;5.50;;;28.00;96.70;;;;;;4977001;28;20050;-76
2021/08/11 07:56:37;;;;;;;8.98;6.00;;;28.00;96.70;;;;;;4980890;28;20046;-76
2021/08/11 07:59:06;;;;;;;9.27;6.07;;;28.10;96.70;;;;;;4976086;28;20524;-76
2021/08/11 08:01:34;;;;;;;10.52;5.70;;;28.20;96.70;;;;;;4969546;28;20054;-76
2021/08/11 08:04:03;;;;;;;8.90;5.20;;;28.40;96.70;;;;;;4975819;28;20102;-76
2021/08/11 08:06:32;;;;;;;9.20;5.38;;;28.40;96.70;;;;;;4979587;28;20045;-76
2021/08/11 08:09:00;;;;;;;10.45;5.40;;;28.40;96.70;;;;;;4975528;28;20050;-76
2021/08/11 08:11:30;;;;;;;10.43;5.20;;;28.50;96.70;;;;;;4983283;28;20043;-76
2021/08/11 08:13:58;;;;;;;8.10;5.43;;;28.50;96.70;;;;;;4980522;28;20114;-76
2021/08/11 08:16:26;;;;;;;5.85;4.72;;;28.60;96.70;;;;;;4981101;28;20073;-76
2021/08/11 08:18:55;;;;;;;5.57;4.45;;;28.70;96.70;;;;;;4972288;28;20098;-76
2021/08/11 08:21:28;;;;;;;8.68;4.80;;;28.80;96.70;;;;;;4981524;28;20050;-76
2021/08/11 08:23:56;;;;;;;8.45;5.22;;;28.90;96.70;;;;;;4973285;28;20514;-76
2021/08/11 08:26:25;;;;;;;9.65;4.90;;;28.90;96.70;;;;;;4974712;28;20046;-76
2021/08/11 08:28:54;;;;;;;7.25;4.72;;;29.00;96.70;;;;;;4953853;28;20129;-77
2021/08/11 08:31:22;;;;;;;9.13;5.30;;;29.00;96.70;;;;;;4978544;28;20042;-76
2021/08/11 08:33:51;;;;;;;7.68;5.35;;;29.10;96.70;;;;;;4983521;28;20034;-76
2021/08/11 08:36:20;;;;;;;6.28;4.35;;;29.20;96.70;;;;;;4986550;28;20496;-76
2021/08/11 08:38:49;;;;;;;8.35;4.68;;;29.20;96.70;;;;;;4978375;28;20043;-76
2021/08/11 08:41:18;;;;;;;7.93;4.63;;;29.30;96.70;;;;;;4979398;28;20147;-77
2021/08/11 08:43:46;;;;;;;6.50;4.10;;;29.40;96.70;;;;;;4975678;28;20046;-76
2021/08/11 08:46:17;;;;;;;8.98;4.75;;;29.40;96.70;;;;;;4983587;28;20042;-76
2021/08/11 08:48:47;;;;;;;7.22;4.60;;;29.50;96.70;;;;;;4984408;28;20050;-77
2021/08/11 08:51:15;;;;;;;6.72;4.60;;;29.60;96.70;;;;;;4976170;28;20040;-76
2021/08/11 08:53:45;;;;;;;7.05;4.47;;;29.60;96.70;;;;;;4980456;28;20046;-76
2021/08/11 08:56:13;;;;;;;8.32;4.40;;;29.70;96.70;;;;;;4984160;28;20050;-76
2021/08/11 08:58:43;;;;;;;8.70;4.88;;;29.70;96.70;;;;;;4975409;28;20547;-77
2021/08/11 09:01:11;;;;;;;7.70;4.22;;;29.80;96.70;;;;;;4969469;28;20832;-76
2021/08/11 09:03:42;;;;;;;5.93;4.30;;;29.80;96.70;;;;;;4963515;28;20053;-76
2021/08/11 09:06:10;;;;;;;8.13;4.70;;;29.80;96.70;;;;;;4975620;28;20043;-76
2021/08/11 09:08:56;;;;;;;7.97;3.80;;;29.90;96.70;;;;;;4979251;28;20046;-77
2021/08/11 09:11:24;;;;;;;5.90;3.93;;;30.00;96.70;;;;;;4975220;28;20050;-77
2021/08/11 09:14:17;;;;;;;6.03;4.18;;;30.10;96.70;;;;;;4975622;28;20098;-77
2021/08/11 09:16:47;;;;;;;8.20;3.88;;;30.30;96.70;;;;;;4974427;28;20101;-76
2021/08/11 09:19:17;;;;;;;6.18;4.22;;;30.50;96.70;;;;;;4982176;28;20051;-77
2021/08/11 09:22:03;;;;;;;6.95;3.72;;;30.60;96.70;;;;;;4983175;28;20041;-76
2021/08/11 09:24:35;;;;;;;6.03;3.70;;;30.50;96.70;;;;;;4977218;28;20465;-76
2021/08/11 09:27:24;;;;;;;6.85;4.30;;;30.50;96.70;;;;;;4980256;28;20038;-77
2021/08/11 09:30:04;;;;;;;5.35;4.13;;;30.50;96.70;;;;;;4979051;28;20050;-76
2021/08/11 09:32:46;;;;;;;12.43;4.35;;;30.70;96.70;;;;;;4974996;28;20039;-77
2021/08/11 09:35:18;;;;;;;7.68;4.50;;;30.90;96.70;;;;;;4974697;28;20047;-77
2021/08/11 09:37:48;;;;;;;8.57;4.35;;;30.90;96.70;;;;;;4979090;28;20069;-77
2021/08/11 09:40:19;;;;;;;8.20;3.67;;;31.00;96.70;;;;;;4976656;28;20128;-77
2021/08/11 09:42:51;;;;;;;8.18;4.32;;;31.10;96.70;;;;;;4979024;28;20112;-76
2021/08/11 09:45:25;;;;;;;6.40;3.90;;;31.20;96.70;;;;;;4976828;28;20445;-77
2021/08/11 09:47:57;;;;;;;7.00;4.20;;;31.20;96.70;;;;;;4981510;28;20038;-77
2021/08/11 09:50:39;;;;;;;5.53;3.72;;;31.20;96.70;;;;;;4983722;28;20045;-77
2021/08/11 09:53:07;;;;;;;5.50;3.60;;;31.30;96.70;;;;;;4980135;28;20050;-77
2021/08/11 09:56:01;;;;;;;8.82;3.90;;;31.30;96.40;;;;;;4972939;28;20890;-77
2021/08/11 09:58:32;;;;;;;6.85;3.53;;;31.30;96.40;;;;;;4991165;28;20042;-77
2021/08/11 10:01:00;;;;;;;7.40;3.75;;;31.50;96.50;;;;;;4974876;28;20034;-77
2021/08/11 10:03:29;;;;;;;7.80;3.58;;;31.60;96.50;;;;;;4979825;28;20030;-76
2021/08/11 10:05:59;;;;;;;6.65;3.70;;;31.70;96.20;;;;;;4975383;28;20038;-75
2021/08/11 10:08:34;;;;;;;8.18;4.05;;;31.70;95.40;;;;;;4976346;28;20398;-76
2021/08/11 10:11:03;;;;;;;5.85;3.10;;;31.70;95.50;;;;;;4981310;28;20423;-76
2021/08/11 10:13:39;;;;;;;5.82;3.50;;;31.60;94.90;;;;;;4967101;28;20043;-77
2021/08/11 10:16:07;;;;;;;;;;;31.60;94.80;;;;;;4996736;28;20416;-77
2021/08/11 10:18:39;;;;;;;7.60;3.22;;;31.70;94.70;;;;;;4982587;28;20032;-76
2021/08/11 10:21:11;;;;;;;5.18;3.25;;;32.10;94.80;;;;;;4982922;28;20050;-76
2021/08/11 10:23:39;;;;;;;5.30;3.38;;;32.20;94.10;;;;;;4979306;28;20051;-76
2021/08/11 10:26:08;;;;;;;7.38;3.65;;;32.30;93.30;;;;;;4978465;28;20105;-76
2021/08/11 10:28:36;;;;;;;5.07;3.42;;;32.40;93.30;;;;;;4977409;28;20054;-76
2021/08/11 10:31:05;;;;;;;5.43;3.08;;;32.40;92.90;;;;;;4981142;28;20046;-76
2021/08/11 10:33:35;;;;;;;6.43;3.45;;;32.70;92.30;;;;;;4969886;28;20061;-76
2021/08/11 10:36:04;;;;;;;7.93;3.90;;;32.90;91.80;;;;;;4983160;28;20064;-76
2021/08/11 10:38:37;;;;;;;5.85;3.58;;;32.90;91.60;;;;;;4979639;28;20049;-76
2021/08/11 10:41:06;;;;;;;5.88;3.85;;;32.80;92.00;;;;;;4974971;28;20050;-76
2021/08/11 10:43:35;;;;;;;5.18;3.70;;;32.90;91.90;;;;;;4971438;28;20053;-76
2021/08/11 10:46:06;;;;;;;9.38;4.40;;;32.80;92.40;;;;;;4977715;28;20051;-77
2021/08/11 10:48:35;;;;;;;10.05;3.47;;;32.90;91.30;;;;;;4973110;28;20431;-77
2021/08/11 10:51:04;;;;;;;10.75;3.45;;;33.10;90.80;;;;;;4984311;28;20649;-76
2021/08/11 10:53:32;;;;;;;6.95;3.63;;;33.40;90.40;;;;;;4979629;28;20493;-77
2021/08/11 10:56:02;;;;;;;6.20;3.30;;;33.50;90.00;;;;;;4975559;28;20105;-77
2021/08/11 10:58:51;;;;;;;4.07;3.28;;;33.70;89.10;;;;;;4973575;28;20042;-77
2021/08/11 11:01:30;;;;;;;7.88;3.78;;;33.90;88.90;;;;;;4978545;28;20077;-77
2021/08/11 11:03:59;;;;;;;5.75;3.28;;;34.10;88.70;;;;;;4963624;28;20050;-77
2021/08/11 11:07:12;;;;;;;6.93;3.25;;;33.90;88.00;;;;;;4959693;28;20050;-77
2021/08/11 11:09:41;;;;;;;4.85;3.40;;;34.00;88.30;;;;;;4939748;29;20304;-77
2021/08/11 11:12:39;;;;;;;5.95;3.20;;;34.10;87.90;;;;;;4923440;29;20055;-77
2021/08/11 11:15:07;;;;;;;9.05;3.20;;;34.40;87.70;;;;;;4926685;29;20161;-77
2021/08/11 11:18:08;;;;;;;7.22;3.10;;;34.50;87.00;;;;;;4926596;29;20059;-77
2021/08/11 11:20:37;;;;;;;6.22;3.25;;;34.60;86.60;;;;;;4932741;29;20055;-76
2021/08/11 11:23:06;;;;;;;5.00;3.20;;;34.30;85.90;;;;;;4936801;29;20069;-76
2021/08/11 11:25:55;;;;;;;5.65;3.13;;;34.20;85.90;;;;;;4935866;29;20052;-76
2021/08/11 11:28:55;;;;;;;6.53;4.05;;;34.20;86.40;;;;;;4930127;28;20060;-76
2021/08/11 11:31:47;;;;;;;7.82;3.05;;;34.30;85.90;;;;;;4914399;29;20056;-76
2021/08/11 11:34:27;;;;;;;7.78;3.38;;;34.60;85.10;;;;;;4922900;29;20502;-77
2021/08/11 11:37:21;;;;;;;6.35;3.03;;;34.80;84.90;;;;;;4923942;29;20052;-76
2021/08/11 11:40:04;;;;;;;5.28;3.30;;;35.00;83.70;;;;;;4930801;29;20087;-77
2021/08/11 11:42:33;;;;;;;6.47;3.20;;;35.20;84.00;;;;;;4909512;28;20047;-77
2021/08/11 11:45:06;;;;;;;4.68;3.05;;;35.20;83.80;;;;;;4971673;28;20054;-77
2021/08/11 11:48:02;;;;;;;9.13;3.00;;;35.30;83.50;;;;;;4966456;28;20054;-77
2021/08/11 11:50:33;;;;;;;14.25;3.30;;;35.50;83.00;;;;;;4982218;28;20042;-76
2021/08/11 11:53:10;;;;;;;10.27;3.03;;;35.50;83.00;;;;;;4979434;28;20042;-76
2021/08/11 11:55:41;;;;;;;9.43;2.88;;;35.50;82.50;;;;;;4974348;28;20077;-76
2021/08/11 11:58:13;;;;;;;4.47;2.80;;;35.70;82.80;;;;;;4981275;28;20385;-77
2021/08/11 12:00:45;;;;;;;8.45;3.03;;;35.80;82.00;;;;;;4982180;28;20089;-77
2021/08/11 12:03:15;;;;;;;5.38;3.03;;;35.70;81.60;;;;;;4974752;28;20043;-76
2021/08/11 12:05:46;;;;;;;5.95;2.70;;;35.80;80.80;;;;;;4973348;28;20158;-77
2021/08/11 12:08:16;;;;;;;16.85;3.25;;;36.00;80.00;;;;;;4978878;28;20045;-76
2021/08/11 12:10:47;;;;;;;6.25;3.55;;;36.00;81.20;;;;;;4972829;28;20077;-76
2021/08/11 12:13:18;;;;;;;6.00;3.10;;;36.20;80.60;;;;;;4973457;28;20053;-76
2021/08/11 12:15:53;;;;;;;6.30;3.67;;;36.40;79.90;;;;;;4972265;28;20512;-77
2021/08/11 12:18:22;;;;;;;6.13;3.00;;;36.40;79.40;;;;;;4976372;28;20595;-76
2021/08/11 12:20:53;;;;;;;8.73;2.83;;;36.40;78.00;;;;;;4979031;28;20066;-76
2021/08/11 12:23:24;;;;;;;5.13;3.00;;;36.40;77.90;;;;;;4976787;28;20568;-75
2021/08/11 12:25:53;;;;;;;4.75;2.80;;;36.60;77.70;;;;;;4980465;28;20053;-76
2021/08/11 12:28:23;;;;;;;4.30;2.65;;;36.70;77.20;;;;;;4982922;28;20665;-78
2021/08/11 12:30:58;;;;;;;5.25;2.67;;;36.60;76.20;;;;;;4980288;28;20497;-77
2021/08/11 12:33:28;;;;;;;8.10;2.83;;;36.60;76.50;;;;;;4975480;28;20393;-77
2021/08/11 12:35:57;;;;;;;4.93;2.70;;;36.70;76.60;;;;;;4976138;28;20057;-77
2021/08/11 12:38:31;;;;;;;7.95;2.63;;;37.00;76.30;;;;;;4972835;28;20182;-77
2021/08/11 12:41:15;;;;;;;4.80;2.20;;;37.10;75.80;;;;;;4983674;28;20031;-77
2021/08/11 12:43:44;;;;;;;11.35;2.83;;;37.10;74.30;;;;;;4980766;28;20496;-77
2021/08/11 12:46:14;;;;;;;5.93;3.13;;;37.10;74.30;;;;;;4980875;28;20043;-77
2021/08/11 12:48:43;;;;;;;5.25;2.60;;;37.00;74.40;;;;;;4977804;28;20038;-77
2021/08/11 12:51:21;;;;;;;5.28;2.95;;;37.10;75.30;;;;;;4996309;28;20528;-77
2021/08/11 12:54:05;;;;;;;5.20;2.67;;;37.30;74.50;;;;;;4984539;28;20097;-77
2021/08/11 12:56:33;;;;;;;5.63;2.88;;;37.40;73.50;;;;;;4982354;28;20042;-77
2021/08/11 12:59:04;;;;;;;4.07;2.45;;;37.30;74.20;;;;;;4977470;28;20542;-77
2021/08/11 13:01:40;;;;;;;6.07;2.80;;;37.20;74.60;;;;;;4974509;28;20512;-76
2021/08/11 13:04:22;;;;;;;6.78;2.60;;;37.40;74.40;;;;;;4978764;28;20054;-77
2021/08/11 13:06:53;;;;;;;5.70;2.88;;;37.50;74.00;;;;;;4979243;28;20338;-77
2021/08/11 13:09:25;;;;;;;15.35;3.42;;;37.50;73.80;;;;;;4980875;28;20057;-76